sensor_id;sensor_type;location;lat;lon;timestamp;P1;durP1;ratioP1;P2;durP2;ratioP2
79785;SDS011;69265;43.614;13.518;2023-04-15T00:01:07;5.35;;;3.35;;
79785;SDS011;69265;43.614;13.518;2023-04-15T00:03:32;6.22;;;3.67;;
79785;SDS011;69265;43.614;13.518;2023-04-15T00:05:58;7.50;;;4.10;;
79785;SDS011;69265;43.614;13.518;2023-04-15T00:08:24;6.15;;;3.75;;
79785;SDS011;69265;43.614;13.518;2023-04-15T00:10:50;6.90;;;3.72;;
79785;SDS011;69265;43.614;13.518;2023-04-15T00:13:15;6.35;;;3.22;;
79785;SDS011;69265;43.614;13.518;2023-04-15T00:15:41;8.27;;;2.97;;
79785;SDS011;69265;43.614;13.518;2023-04-15T00:18:08;5.60;;;3.50;;
79785;SDS011;69265;43.614;13.518;2023-04-15T00:20:34;4.47;;;2.72;;
79785;SDS011;69265;43.614;13.518;2023-04-15T00:23:01;5.13;;;2.97;;
79785;SDS011;69265;43.614;13.518;2023-04-15T00:25:27;6.18;;;3.13;;
79785;SDS011;69265;43.614;13.518;2023-04-15T00:27:53;4.97;;;2.55;;
79785;SDS011;69265;43.614;13.518;2023-04-15T00:30:19;5.80;;;2.47;;
79785;SDS011;69265;43.614;13.518;2023-04-15T00:32:45;6.50;;;3.58;;
79785;SDS011;69265;43.614;13.518;2023-04-15T00:35:10;4.10;;;2.17;;
79785;SDS011;69265;43.614;13.518;2023-04-15T00:37:36;4.78;;;3.03;;
79785;SDS011;69265;43.614;13.518;2023-04-15T00:40:02;5.25;;;2.20;;
79785;SDS011;69265;43.614;13.518;2023-04-15T00:42:30;5.75;;;1.90;;
79785;SDS011;69265;43.614;13.518;2023-04-15T00:44:56;4.68;;;1.60;;
79785;SDS011;69265;43.614;13.518;2023-04-15T00:47:22;6.78;;;1.75;;
79785;SDS011;69265;43.614;13.518;2023-04-15T00:49:48;5.35;;;1.65;;
79785;SDS011;69265;43.614;13.518;2023-04-15T00:52:13;4.28;;;1.67;;
79785;SDS011;69265;43.614;13.518;2023-04-15T00:54:39;4.78;;;1.70;;
79785;SDS011;69265;43.614;13.518;2023-04-15T00:57:05;7.03;;;1.52;;
79785;SDS011;69265;43.614;13.518;2023-04-15T00:59:32;9.82;;;1.65;;
79785;SDS011;69265;43.614;13.518;2023-04-15T01:01:59;7.50;;;1.73;;
79785;SDS011;69265;43.614;13.518;2023-04-15T01:04:25;6.10;;;1.90;;
79785;SDS011;69265;43.614;13.518;2023-04-15T01:06:51;7.68;;;1.83;;
79785;SDS011;69265;43.614;13.518;2023-04-15T01:09:17;6.57;;;1.70;;
79785;SDS011;69265;43.614;13.518;2023-04-15T01:11:42;5.55;;;1.80;;
79785;SDS011;69265;43.614;13.518;2023-04-15T01:14:09;6.50;;;1.88;;
79785;SDS011;69265;43.614;13.518;2023-04-15T01:16:35;8.93;;;2.28;;
79785;SDS011;69265;43.614;13.518;2023-04-15T01:19:05;4.93;;;1.60;;
79785;SDS011;69265;43.614;13.518;2023-04-15T01:21:37;8.48;;;2.08;;
79785;SDS011;69265;43.614;13.518;2023-04-15T01:24:07;12.13;;;2.08;;
79785;SDS011;69265;43.614;13.518;2023-04-15T01:26:38;6.45;;;1.73;;
79785;SDS011;69265;43.614;13.518;2023-04-15T01:29:05;4.88;;;1.63;;
79785;SDS011;69265;43.614;13.518;2023-04-15T01:31:31;10.98;;;1.80;;
79785;SDS011;69265;43.614;13.518;2023-04-15T01:33:57;5.47;;;1.55;;
79785;SDS011;69265;43.614;13.518;2023-04-15T01:36:23;8.68;;;2.05;;
79785;SDS011;69265;43.614;13.518;2023-04-15T01:38:48;3.50;;;1.50;;
79785;SDS011;69265;43.614;13.518;2023-04-15T01:41:15;10.90;;;2.42;;
79785;SDS011;69265;43.614;13.518;2023-04-15T01:43:41;6.72;;;1.50;;
79785;SDS011;69265;43.614;13.518;2023-04-15T01:46:07;6.82;;;2.10;;
79785;SDS011;69265;43.614;13.518;2023-04-15T01:48:32;5.03;;;2.00;;
79785;SDS011;69265;43.614;13.518;2023-04-15T01:50:58;8.15;;;1.70;;
79785;SDS011;69265;43.614;13.518;2023-04-15T01:53:24;6.35;;;1.90;;
79785;SDS011;69265;43.614;13.518;2023-04-15T01:55:50;5.40;;;1.65;;
79785;SDS011;69265;43.614;13.518;2023-04-15T01:58:17;3.83;;;1.67;;
79785;SDS011;69265;43.614;13.518;2023-04-15T02:00:43;7.53;;;1.85;;
79785;SDS011;69265;43.614;13.518;2023-04-15T02:03:09;3.58;;;1.50;;
79785;SDS011;69265;43.614;13.518;2023-04-15T02:05:35;5.40;;;1.80;;
79785;SDS011;69265;43.614;13.518;2023-04-15T02:08:01;3.90;;;1.52;;
79785;SDS011;69265;43.614;13.518;2023-04-15T02:10:27;6.05;;;2.10;;
79785;SDS011;69265;43.614;13.518;2023-04-15T02:12:53;4.18;;;1.58;;
79785;SDS011;69265;43.614;13.518;2023-04-15T02:15:19;3.90;;;1.67;;
79785;SDS011;69265;43.614;13.518;2023-04-15T02:17:45;6.65;;;1.70;;
79785;SDS011;69265;43.614;13.518;2023-04-15T02:20:15;4.78;;;1.70;;
79785;SDS011;69265;43.614;13.518;2023-04-15T02:22:42;5.38;;;1.65;;
79785;SDS011;69265;43.614;13.518;2023-04-15T02:25:08;6.55;;;1.85;;
79785;SDS011;69265;43.614;13.518;2023-04-15T02:27:34;5.10;;;1.85;;
79785;SDS011;69265;43.614;13.518;2023-04-15T02:30:00;5.38;;;2.15;;
79785;SDS011;69265;43.614;13.518;2023-04-15T02:32:28;4.47;;;1.48;;
79785;SDS011;69265;43.614;13.518;2023-04-15T02:34:53;4.47;;;1.60;;
79785;SDS011;69265;43.614;13.518;2023-04-15T02:37:19;6.45;;;1.92;;
79785;SDS011;69265;43.614;13.518;2023-04-15T02:39:45;3.45;;;1.60;;
79785;SDS011;69265;43.614;13.518;2023-04-15T02:42:11;4.70;;;1.52;;
79785;SDS011;69265;43.614;13.518;2023-04-15T02:44:37;5.22;;;1.40;;
79785;SDS011;69265;43.614;13.518;2023-04-15T02:47:03;5.95;;;1.50;;
79785;SDS011;69265;43.614;13.518;2023-04-15T02:49:31;6.68;;;1.27;;
79785;SDS011;69265;43.614;13.518;2023-04-15T02:51:56;5.07;;;1.60;;
79785;SDS011;69265;43.614;13.518;2023-04-15T02:54:24;9.85;;;1.85;;
79785;SDS011;69265;43.614;13.518;2023-04-15T02:56:52;3.38;;;1.48;;
79785;SDS011;69265;43.614;13.518;2023-04-15T02:59:21;2.83;;;1.48;;
79785;SDS011;69265;43.614;13.518;2023-04-15T03:01:47;3.67;;;1.45;;
79785;SDS011;69265;43.614;13.518;2023-04-15T03:04:12;3.08;;;1.33;;
79785;SDS011;69265;43.614;13.518;2023-04-15T03:06:38;4.65;;;1.50;;
79785;SDS011;69265;43.614;13.518;2023-04-15T03:09:04;4.88;;;1.35;;
79785;SDS011;69265;43.614;13.518;2023-04-15T03:11:29;5.10;;;1.30;;
79785;SDS011;69265;43.614;13.518;2023-04-15T03:13:56;4.03;;;1.65;;
79785;SDS011;69265;43.614;13.518;2023-04-15T03:16:23;3.28;;;1.50;;
79785;SDS011;69265;43.614;13.518;2023-04-15T03:18:49;5.18;;;1.50;;
79785;SDS011;69265;43.614;13.518;2023-04-15T03:21:15;5.50;;;1.50;;
79785;SDS011;69265;43.614;13.518;2023-04-15T03:23:41;7.20;;;1.80;;
79785;SDS011;69265;43.614;13.518;2023-04-15T03:26:07;4.07;;;1.40;;
79785;SDS011;69265;43.614;13.518;2023-04-15T03:28:32;5.80;;;1.50;;
79785;SDS011;69265;43.614;13.518;2023-04-15T03:30:58;6.03;;;1.63;;
79785;SDS011;69265;43.614;13.518;2023-04-15T03:33:24;4.70;;;1.20;;
79785;SDS011;69265;43.614;13.518;2023-04-15T03:35:50;5.95;;;1.63;;
79785;SDS011;69265;43.614;13.518;2023-04-15T03:38:17;2.72;;;1.40;;
79785;SDS011;69265;43.614;13.518;2023-04-15T03:40:44;2.42;;;1.40;;
79785;SDS011;69265;43.614;13.518;2023-04-15T03:43:11;6.22;;;1.73;;
79785;SDS011;69265;43.614;13.518;2023-04-15T03:45:36;2.60;;;1.30;;
79785;SDS011;69265;43.614;13.518;2023-04-15T03:48:02;3.05;;;1.45;;
79785;SDS011;69265;43.614;13.518;2023-04-15T03:50:28;4.85;;;1.60;;
79785;SDS011;69265;43.614;13.518;2023-04-15T03:52:54;4.63;;;1.63;;
79785;SDS011;69265;43.614;13.518;2023-04-15T03:55:20;4.13;;;1.50;;
79785;SDS011;69265;43.614;13.518;2023-04-15T03:57:45;4.57;;;1.55;;
79785;SDS011;69265;43.614;13.518;2023-04-15T04:00:11;2.80;;;1.58;;
79785;SDS011;69265;43.614;13.518;2023-04-15T04:02:37;3.92;;;1.85;;
79785;SDS011;69265;43.614;13.518;2023-04-15T04:05:03;3.80;;;1.60;;
79785;SDS011;69265;43.614;13.518;2023-04-15T04:07:29;1.92;;;1.20;;
79785;SDS011;69265;43.614;13.518;2023-04-15T04:09:57;3.55;;;1.40;;
79785;SDS011;69265;43.614;13.518;2023-04-15T04:12:23;5.50;;;1.90;;
79785;SDS011;69265;43.614;13.518;2023-04-15T04:14:49;4.68;;;2.00;;
79785;SDS011;69265;43.614;13.518;2023-04-15T04:17:15;3.75;;;1.42;;
79785;SDS011;69265;43.614;13.518;2023-04-15T04:19:41;4.18;;;1.25;;
79785;SDS011;69265;43.614;13.518;2023-04-15T04:22:06;4.07;;;1.25;;
79785;SDS011;69265;43.614;13.518;2023-04-15T04:24:32;5.60;;;1.67;;
79785;SDS011;69265;43.614;13.518;2023-04-15T04:26:58;6.70;;;1.40;;
79785;SDS011;69265;43.614;13.518;2023-04-15T04:29:23;5.72;;;1.92;;
79785;SDS011;69265;43.614;13.518;2023-04-15T04:31:49;4.28;;;1.30;;
79785;SDS011;69265;43.614;13.518;2023-04-15T04:34:15;4.53;;;1.40;;
79785;SDS011;69265;43.614;13.518;2023-04-15T04:36:41;3.95;;;1.20;;
79785;SDS011;69265;43.614;13.518;2023-04-15T04:39:07;3.75;;;1.35;;
79785;SDS011;69265;43.614;13.518;2023-04-15T04:41:32;4.25;;;1.40;;
79785;SDS011;69265;43.614;13.518;2023-04-15T04:43:58;2.05;;;0.95;;
79785;SDS011;69265;43.614;13.518;2023-04-15T04:46:24;5.57;;;1.63;;
79785;SDS011;69265;43.614;13.518;2023-04-15T04:48:50;1.55;;;1.02;;
79785;SDS011;69265;43.614;13.518;2023-04-15T04:51:15;5.00;;;1.83;;
79785;SDS011;69265;43.614;13.518;2023-04-15T04:53:42;2.78;;;1.10;;
79785;SDS011;69265;43.614;13.518;2023-04-15T04:56:08;4.82;;;1.40;;
79785;SDS011;69265;43.614;13.518;2023-04-15T04:58:33;4.60;;;1.42;;
79785;SDS011;69265;43.614;13.518;2023-04-15T05:01:00;3.70;;;1.33;;
79785;SDS011;69265;43.614;13.518;2023-04-15T05:03:27;1.88;;;0.77;;
79785;SDS011;69265;43.614;13.518;2023-04-15T05:05:52;5.43;;;1.50;;
79785;SDS011;69265;43.614;13.518;2023-04-15T05:08:18;2.25;;;1.00;;
79785;SDS011;69265;43.614;13.518;2023-04-15T05:10:44;3.70;;;1.02;;
79785;SDS011;69265;43.614;13.518;2023-04-15T05:13:11;2.58;;;1.23;;
79785;SDS011;69265;43.614;13.518;2023-04-15T05:15:36;2.95;;;1.60;;
79785;SDS011;69265;43.614;13.518;2023-04-15T05:18:05;3.60;;;1.50;;
79785;SDS011;69265;43.614;13.518;2023-04-15T05:20:31;4.45;;;1.20;;
79785;SDS011;69265;43.614;13.518;2023-04-15T05:22:56;4.75;;;1.30;;
79785;SDS011;69265;43.614;13.518;2023-04-15T05:25:22;3.67;;;1.60;;
79785;SDS011;69265;43.614;13.518;2023-04-15T05:27:48;4.72;;;1.70;;
79785;SDS011;69265;43.614;13.518;2023-04-15T05:30:13;3.35;;;1.48;;
79785;SDS011;69265;43.614;13.518;2023-04-15T05:32:40;5.35;;;1.67;;
79785;SDS011;69265;43.614;13.518;2023-04-15T05:35:05;6.55;;;1.30;;
79785;SDS011;69265;43.614;13.518;2023-04-15T05:37:32;3.72;;;1.33;;
79785;SDS011;69265;43.614;13.518;2023-04-15T05:39:57;4.30;;;1.50;;
79785;SDS011;69265;43.614;13.518;2023-04-15T05:42:23;4.57;;;2.33;;
79785;SDS011;69265;43.614;13.518;2023-04-15T05:44:49;3.72;;;1.50;;
79785;SDS011;69265;43.614;13.518;2023-04-15T05:47:15;3.90;;;1.05;;
79785;SDS011;69265;43.614;13.518;2023-04-15T05:49:41;5.43;;;1.20;;
79785;SDS011;69265;43.614;13.518;2023-04-15T05:52:07;3.17;;;1.20;;
79785;SDS011;69265;43.614;13.518;2023-04-15T05:54:34;2.13;;;1.13;;
79785;SDS011;69265;43.614;13.518;2023-04-15T05:57:00;4.47;;;1.40;;
79785;SDS011;69265;43.614;13.518;2023-04-15T05:59:26;3.00;;;1.30;;
79785;SDS011;69265;43.614;13.518;2023-04-15T06:01:52;2.97;;;1.30;;
79785;SDS011;69265;43.614;13.518;2023-04-15T06:04:18;6.07;;;1.42;;
79785;SDS011;69265;43.614;13.518;2023-04-15T06:06:44;2.40;;;0.98;;
79785;SDS011;69265;43.614;13.518;2023-04-15T06:09:10;2.15;;;1.27;;
79785;SDS011;69265;43.614;13.518;2023-04-15T06:11:35;4.97;;;1.45;;
79785;SDS011;69265;43.614;13.518;2023-04-15T06:14:01;4.53;;;1.10;;
79785;SDS011;69265;43.614;13.518;2023-04-15T06:16:27;2.58;;;1.50;;
79785;SDS011;69265;43.614;13.518;2023-04-15T06:18:53;3.95;;;1.40;;
79785;SDS011;69265;43.614;13.518;2023-04-15T06:21:18;2.88;;;1.20;;
79785;SDS011;69265;43.614;13.518;2023-04-15T06:23:44;3.28;;;1.27;;
79785;SDS011;69265;43.614;13.518;2023-04-15T06:26:10;3.95;;;1.67;;
79785;SDS011;69265;43.614;13.518;2023-04-15T06:28:36;3.78;;;1.30;;
79785;SDS011;69265;43.614;13.518;2023-04-15T06:31:02;3.65;;;1.25;;
79785;SDS011;69265;43.614;13.518;2023-04-15T06:33:28;3.10;;;1.20;;
79785;SDS011;69265;43.614;13.518;2023-04-15T06:35:53;2.65;;;1.35;;
79785;SDS011;69265;43.614;13.518;2023-04-15T06:38:19;5.28;;;1.33;;
79785;SDS011;69265;43.614;13.518;2023-04-15T06:40:45;3.08;;;1.13;;
79785;SDS011;69265;43.614;13.518;2023-04-15T06:43:11;3.10;;;2.10;;
79785;SDS011;69265;43.614;13.518;2023-04-15T06:45:36;3.47;;;1.30;;
79785;SDS011;69265;43.614;13.518;2023-04-15T06:48:02;2.63;;;1.40;;
79785;SDS011;69265;43.614;13.518;2023-04-15T06:50:28;5.20;;;1.40;;
79785;SDS011;69265;43.614;13.518;2023-04-15T06:52:54;4.10;;;1.20;;
79785;SDS011;69265;43.614;13.518;2023-04-15T06:55:21;3.53;;;1.17;;
79785;SDS011;69265;43.614;13.518;2023-04-15T06:57:47;4.32;;;1.42;;
79785;SDS011;69265;43.614;13.518;2023-04-15T07:00:12;1.77;;;1.20;;
79785;SDS011;69265;43.614;13.518;2023-04-15T07:02:38;2.95;;;1.40;;
79785;SDS011;69265;43.614;13.518;2023-04-15T07:05:05;3.13;;;1.40;;
79785;SDS011;69265;43.614;13.518;2023-04-15T07:07:31;2.55;;;1.25;;
79785;SDS011;69265;43.614;13.518;2023-04-15T07:09:57;2.47;;;1.13;;
79785;SDS011;69265;43.614;13.518;2023-04-15T07:12:22;4.28;;;1.58;;
79785;SDS011;69265;43.614;13.518;2023-04-15T07:14:48;3.40;;;1.52;;
79785;SDS011;69265;43.614;13.518;2023-04-15T07:17:14;3.90;;;1.40;;
79785;SDS011;69265;43.614;13.518;2023-04-15T07:19:40;5.57;;;1.73;;
79785;SDS011;69265;43.614;13.518;2023-04-15T07:22:05;6.53;;;2.05;;
79785;SDS011;69265;43.614;13.518;2023-04-15T07:24:31;12.10;;;1.90;;
79785;SDS011;69265;43.614;13.518;2023-04-15T07:26:57;4.65;;;1.10;;
79785;SDS011;69265;43.614;13.518;2023-04-15T07:29:23;3.75;;;1.38;;
79785;SDS011;69265;43.614;13.518;2023-04-15T07:31:50;4.13;;;1.98;;
79785;SDS011;69265;43.614;13.518;2023-04-15T07:34:16;8.27;;;1.48;;
79785;SDS011;69265;43.614;13.518;2023-04-15T07:36:43;4.45;;;1.55;;
79785;SDS011;69265;43.614;13.518;2023-04-15T07:39:08;2.40;;;1.20;;
79785;SDS011;69265;43.614;13.518;2023-04-15T07:41:34;6.15;;;1.65;;
79785;SDS011;69265;43.614;13.518;2023-04-15T07:44:00;5.07;;;1.63;;
79785;SDS011;69265;43.614;13.518;2023-04-15T07:46:25;3.67;;;1.50;;
79785;SDS011;69265;43.614;13.518;2023-04-15T07:48:51;3.63;;;1.70;;
79785;SDS011;69265;43.614;13.518;2023-04-15T07:51:18;4.03;;;1.90;;
79785;SDS011;69265;43.614;13.518;2023-04-15T07:53:45;5.05;;;1.75;;
79785;SDS011;69265;43.614;13.518;2023-04-15T07:56:12;3.97;;;1.75;;
79785;SDS011;69265;43.614;13.518;2023-04-15T07:58:38;4.22;;;1.70;;
79785;SDS011;69265;43.614;13.518;2023-04-15T08:01:04;6.10;;;2.10;;
79785;SDS011;69265;43.614;13.518;2023-04-15T08:03:30;4.60;;;1.80;;
79785;SDS011;69265;43.614;13.518;2023-04-15T08:05:57;5.20;;;1.90;;
79785;SDS011;69265;43.614;13.518;2023-04-15T08:08:22;21.58;;;3.30;;
79785;SDS011;69265;43.614;13.518;2023-04-15T08:10:49;6.05;;;2.15;;
79785;SDS011;69265;43.614;13.518;2023-04-15T08:13:15;7.80;;;1.98;;
79785;SDS011;69265;43.614;13.518;2023-04-15T08:15:41;8.85;;;1.83;;
79785;SDS011;69265;43.614;13.518;2023-04-15T08:18:07;9.75;;;2.30;;
79785;SDS011;69265;43.614;13.518;2023-04-15T08:20:32;8.10;;;1.63;;
79785;SDS011;69265;43.614;13.518;2023-04-15T08:22:58;6.00;;;1.67;;
79785;SDS011;69265;43.614;13.518;2023-04-15T08:25:24;6.43;;;2.15;;
79785;SDS011;69265;43.614;13.518;2023-04-15T08:27:51;4.03;;;2.22;;
79785;SDS011;69265;43.614;13.518;2023-04-15T08:30:19;3.97;;;1.90;;
79785;SDS011;69265;43.614;13.518;2023-04-15T08:32:46;3.47;;;1.55;;
79785;SDS011;69265;43.614;13.518;2023-04-15T08:35:13;3.63;;;1.35;;
79785;SDS011;69265;43.614;13.518;2023-04-15T08:37:39;2.13;;;1.25;;
79785;SDS011;69265;43.614;13.518;2023-04-15T08:40:05;6.10;;;1.55;;
79785;SDS011;69265;43.614;13.518;2023-04-15T08:42:35;6.32;;;1.95;;
79785;SDS011;69265;43.614;13.518;2023-04-15T08:45:05;4.70;;;1.98;;
79785;SDS011;69265;43.614;13.518;2023-04-15T08:47:34;2.75;;;1.20;;
79785;SDS011;69265;43.614;13.518;2023-04-15T08:50:03;2.88;;;1.30;;
79785;SDS011;69265;43.614;13.518;2023-04-15T08:52:33;2.58;;;1.48;;
79785;SDS011;69265;43.614;13.518;2023-04-15T08:54:59;2.15;;;1.40;;
79785;SDS011;69265;43.614;13.518;2023-04-15T08:57:27;4.75;;;1.45;;
79785;SDS011;69265;43.614;13.518;2023-04-15T08:59:56;3.03;;;1.30;;
79785;SDS011;69265;43.614;13.518;2023-04-15T09:02:23;3.83;;;1.70;;
79785;SDS011;69265;43.614;13.518;2023-04-15T09:04:52;2.78;;;1.30;;
79785;SDS011;69265;43.614;13.518;2023-04-15T09:07:18;3.13;;;1.50;;
79785;SDS011;69265;43.614;13.518;2023-04-15T09:09:44;3.13;;;1.30;;
79785;SDS011;69265;43.614;13.518;2023-04-15T09:12:10;4.88;;;1.45;;
79785;SDS011;69265;43.614;13.518;2023-04-15T09:14:37;1.90;;;1.25;;
79785;SDS011;69265;43.614;13.518;2023-04-15T09:17:04;2.70;;;1.20;;
79785;SDS011;69265;43.614;13.518;2023-04-15T09:19:34;5.57;;;2.00;;
79785;SDS011;69265;43.614;13.518;2023-04-15T09:22:00;3.38;;;2.15;;
79785;SDS011;69265;43.614;13.518;2023-04-15T09:24:34;4.05;;;1.98;;
79785;SDS011;69265;43.614;13.518;2023-04-15T09:27:02;4.35;;;1.75;;
79785;SDS011;69265;43.614;13.518;2023-04-15T09:29:28;5.68;;;1.60;;
79785;SDS011;69265;43.614;13.518;2023-04-15T09:31:54;1.95;;;1.30;;
79785;SDS011;69265;43.614;13.518;2023-04-15T09:34:20;3.55;;;1.10;;
79785;SDS011;69265;43.614;13.518;2023-04-15T09:39:13;4.30;;;1.08;;
79785;SDS011;69265;43.614;13.518;2023-04-15T09:41:39;3.10;;;1.17;;
79785;SDS011;69265;43.614;13.518;2023-04-15T09:44:05;3.55;;;1.10;;
79785;SDS011;69265;43.614;13.518;2023-04-15T09:46:43;1.77;;;1.17;;
79785;SDS011;69265;43.614;13.518;2023-04-15T09:49:10;2.00;;;0.93;;
79785;SDS011;69265;43.614;13.518;2023-04-15T09:51:37;1.70;;;1.17;;
79785;SDS011;69265;43.614;13.518;2023-04-15T09:54:03;4.32;;;1.30;;
79785;SDS011;69265;43.614;13.518;2023-04-15T09:56:36;4.15;;;1.27;;
79785;SDS011;69265;43.614;13.518;2023-04-15T09:59:05;3.85;;;1.42;;
79785;SDS011;69265;43.614;13.518;2023-04-15T10:01:31;2.00;;;1.15;;
79785;SDS011;69265;43.614;13.518;2023-04-15T10:03:57;3.08;;;1.52;;
79785;SDS011;69265;43.614;13.518;2023-04-15T10:06:25;2.70;;;1.20;;
79785;SDS011;69265;43.614;13.518;2023-04-15T10:08:51;3.90;;;1.35;;
79785;SDS011;69265;43.614;13.518;2023-04-15T10:11:18;4.30;;;1.33;;
79785;SDS011;69265;43.614;13.518;2023-04-15T10:13:45;4.78;;;1.80;;
79785;SDS011;69265;43.614;13.518;2023-04-15T10:16:14;2.97;;;1.73;;
79785;SDS011;69265;43.614;13.518;2023-04-15T10:18:44;5.43;;;1.58;;
79785;SDS011;69265;43.614;13.518;2023-04-15T10:21:11;3.22;;;1.27;;
79785;SDS011;69265;43.614;13.518;2023-04-15T10:23:42;2.22;;;1.33;;
79785;SDS011;69265;43.614;13.518;2023-04-15T10:26:11;3.00;;;1.63;;
79785;SDS011;69265;43.614;13.518;2023-04-15T10:28:39;3.10;;;1.60;;
79785;SDS011;69265;43.614;13.518;2023-04-15T10:31:05;4.68;;;2.20;;
79785;SDS011;69265;43.614;13.518;2023-04-15T10:33:31;3.22;;;1.60;;
79785;SDS011;69265;43.614;13.518;2023-04-15T10:35:58;5.68;;;1.95;;
79785;SDS011;69265;43.614;13.518;2023-04-15T10:38:32;4.00;;;2.80;;
79785;SDS011;69265;43.614;13.518;2023-04-15T10:43:48;5.18;;;1.70;;
79785;SDS011;69265;43.614;13.518;2023-04-15T10:46:22;3.78;;;1.75;;
79785;SDS011;69265;43.614;13.518;2023-04-15T10:49:00;5.40;;;2.20;;
79785;SDS011;69265;43.614;13.518;2023-04-15T10:51:41;4.50;;;1.98;;
79785;SDS011;69265;43.614;13.518;2023-04-15T10:54:15;1.98;;;1.42;;
79785;SDS011;69265;43.614;13.518;2023-04-15T10:59:28;3.67;;;1.60;;
79785;SDS011;69265;43.614;13.518;2023-04-15T11:01:56;7.00;;;2.72;;
79785;SDS011;69265;43.614;13.518;2023-04-15T11:12:42;7.07;;;2.58;;
79785;SDS011;69265;43.614;13.518;2023-04-15T11:18:14;3.72;;;1.52;;
79785;SDS011;69265;43.614;13.518;2023-04-15T11:20:52;3.45;;;1.50;;
79785;SDS011;69265;43.614;13.518;2023-04-15T11:23:32;3.05;;;1.42;;
79785;SDS011;69265;43.614;13.518;2023-04-15T11:26:03;4.93;;;1.67;;
79785;SDS011;69265;43.614;13.518;2023-04-15T11:28:33;2.67;;;1.40;;
79785;SDS011;69265;43.614;13.518;2023-04-15T11:31:07;3.92;;;1.40;;
79785;SDS011;69265;43.614;13.518;2023-04-15T11:33:35;2.03;;;1.25;;
79785;SDS011;69265;43.614;13.518;2023-04-15T11:36:01;2.17;;;1.33;;
79785;SDS011;69265;43.614;13.518;2023-04-15T11:38:28;5.20;;;1.60;;
79785;SDS011;69265;43.614;13.518;2023-04-15T11:40:54;3.50;;;1.65;;
79785;SDS011;69265;43.614;13.518;2023-04-15T11:43:21;3.92;;;1.40;;
79785;SDS011;69265;43.614;13.518;2023-04-15T11:45:54;3.88;;;1.48;;
79785;SDS011;69265;43.614;13.518;2023-04-15T11:48:22;3.05;;;1.50;;
79785;SDS011;69265;43.614;13.518;2023-04-15T11:50:53;2.60;;;1.13;;
79785;SDS011;69265;43.614;13.518;2023-04-15T11:53:23;3.67;;;1.30;;
79785;SDS011;69265;43.614;13.518;2023-04-15T11:56:01;3.83;;;1.20;;
79785;SDS011;69265;43.614;13.518;2023-04-15T11:58:28;4.40;;;1.40;;
79785;SDS011;69265;43.614;13.518;2023-04-15T12:00:54;2.78;;;1.27;;
79785;SDS011;69265;43.614;13.518;2023-04-15T12:06:23;2.17;;;1.40;;
79785;SDS011;69265;43.614;13.518;2023-04-15T12:16:38;2.63;;;1.25;;
79785;SDS011;69265;43.614;13.518;2023-04-15T12:19:10;1.70;;;0.90;;
79785;SDS011;69265;43.614;13.518;2023-04-15T12:21:38;4.32;;;1.48;;
79785;SDS011;69265;43.614;13.518;2023-04-15T12:24:06;3.33;;;1.35;;
79785;SDS011;69265;43.614;13.518;2023-04-15T12:26:36;3.25;;;1.30;;
79785;SDS011;69265;43.614;13.518;2023-04-15T12:29:08;4.00;;;1.50;;
79785;SDS011;69265;43.614;13.518;2023-04-15T12:31:36;2.38;;;0.93;;
79785;SDS011;69265;43.614;13.518;2023-04-15T12:34:10;2.72;;;0.98;;
79785;SDS011;69265;43.614;13.518;2023-04-15T12:36:36;4.00;;;1.27;;
79785;SDS011;69265;43.614;13.518;2023-04-15T12:39:04;2.83;;;1.38;;
79785;SDS011;69265;43.614;13.518;2023-04-15T12:41:31;4.68;;;1.48;;
79785;SDS011;69265;43.614;13.518;2023-04-15T12:43:57;3.55;;;1.50;;
79785;SDS011;69265;43.614;13.518;2023-04-15T12:46:23;5.20;;;1.60;;
79785;SDS011;69265;43.614;13.518;2023-04-15T12:48:49;2.83;;;1.20;;
79785;SDS011;69265;43.614;13.518;2023-04-15T12:51:18;6.10;;;1.65;;
79785;SDS011;69265;43.614;13.518;2023-04-15T12:53:47;4.88;;;1.40;;
79785;SDS011;69265;43.614;13.518;2023-04-15T12:56:14;10.07;;;2.50;;
79785;SDS011;69265;43.614;13.518;2023-04-15T12:58:41;5.18;;;2.50;;
79785;SDS011;69265;43.614;13.518;2023-04-15T13:01:07;3.83;;;2.05;;
79785;SDS011;69265;43.614;13.518;2023-04-15T13:03:32;3.85;;;1.40;;
79785;SDS011;69265;43.614;13.518;2023-04-15T13:05:58;5.22;;;2.40;;
79785;SDS011;69265;43.614;13.518;2023-04-15T13:08:26;6.05;;;1.70;;
79785;SDS011;69265;43.614;13.518;2023-04-15T13:10:52;4.47;;;1.42;;
79785;SDS011;69265;43.614;13.518;2023-04-15T13:13:17;2.75;;;1.55;;
79785;SDS011;69265;43.614;13.518;2023-04-15T13:15:43;4.82;;;1.90;;
79785;SDS011;69265;43.614;13.518;2023-04-15T13:18:10;4.47;;;1.85;;
79785;SDS011;69265;43.614;13.518;2023-04-15T13:20:35;3.90;;;1.50;;
79785;SDS011;69265;43.614;13.518;2023-04-15T13:23:01;4.82;;;1.83;;
79785;SDS011;69265;43.614;13.518;2023-04-15T13:25:27;7.20;;;2.47;;
79785;SDS011;69265;43.614;13.518;2023-04-15T13:27:53;4.68;;;1.80;;
79785;SDS011;69265;43.614;13.518;2023-04-15T13:30:18;8.20;;;1.83;;
79785;SDS011;69265;43.614;13.518;2023-04-15T13:32:44;5.05;;;1.60;;
79785;SDS011;69265;43.614;13.518;2023-04-15T13:35:10;5.50;;;1.50;;
79785;SDS011;69265;43.614;13.518;2023-04-15T13:37:36;3.95;;;1.50;;
79785;SDS011;69265;43.614;13.518;2023-04-15T13:40:01;3.47;;;1.23;;
79785;SDS011;69265;43.614;13.518;2023-04-15T13:42:27;5.00;;;1.40;;
79785;SDS011;69265;43.614;13.518;2023-04-15T13:44:53;4.32;;;1.27;;
79785;SDS011;69265;43.614;13.518;2023-04-15T13:47:19;5.82;;;2.05;;
79785;SDS011;69265;43.614;13.518;2023-04-15T13:49:45;5.03;;;2.35;;
79785;SDS011;69265;43.614;13.518;2023-04-15T13:52:11;3.45;;;1.67;;
79785;SDS011;69265;43.614;13.518;2023-04-15T13:54:37;6.32;;;1.45;;
79785;SDS011;69265;43.614;13.518;2023-04-15T13:57:03;3.38;;;1.42;;
79785;SDS011;69265;43.614;13.518;2023-04-15T13:59:30;2.78;;;1.20;;
79785;SDS011;69265;43.614;13.518;2023-04-15T14:01:57;3.75;;;1.65;;
79785;SDS011;69265;43.614;13.518;2023-04-15T14:04:23;2.95;;;1.17;;
79785;SDS011;69265;43.614;13.518;2023-04-15T14:06:48;2.15;;;1.02;;
79785;SDS011;69265;43.614;13.518;2023-04-15T14:09:14;2.90;;;1.20;;
79785;SDS011;69265;43.614;13.518;2023-04-15T14:11:40;2.55;;;0.93;;
79785;SDS011;69265;43.614;13.518;2023-04-15T14:14:06;1.30;;;0.68;;
79785;SDS011;69265;43.614;13.518;2023-04-15T14:16:32;4.38;;;1.23;;
79785;SDS011;69265;43.614;13.518;2023-04-15T14:18:58;3.97;;;0.88;;
79785;SDS011;69265;43.614;13.518;2023-04-15T14:21:24;3.50;;;1.23;;
79785;SDS011;69265;43.614;13.518;2023-04-15T14:23:51;3.42;;;1.33;;
79785;SDS011;69265;43.614;13.518;2023-04-15T14:26:18;3.15;;;0.88;;
79785;SDS011;69265;43.614;13.518;2023-04-15T14:28:43;2.80;;;0.75;;
79785;SDS011;69265;43.614;13.518;2023-04-15T14:31:09;1.40;;;0.82;;
79785;SDS011;69265;43.614;13.518;2023-04-15T14:33:35;1.17;;;0.80;;
79785;SDS011;69265;43.614;13.518;2023-04-15T14:36:01;3.97;;;1.15;;
79785;SDS011;69265;43.614;13.518;2023-04-15T14:38:27;2.13;;;0.98;;
79785;SDS011;69265;43.614;13.518;2023-04-15T14:40:53;2.20;;;0.68;;
79785;SDS011;69265;43.614;13.518;2023-04-15T14:43:19;2.00;;;0.90;;
79785;SDS011;69265;43.614;13.518;2023-04-15T14:45:45;3.42;;;0.93;;
79785;SDS011;69265;43.614;13.518;2023-04-15T14:48:11;2.42;;;0.93;;
79785;SDS011;69265;43.614;13.518;2023-04-15T14:50:38;2.75;;;1.00;;
79785;SDS011;69265;43.614;13.518;2023-04-15T14:53:04;2.22;;;1.25;;
79785;SDS011;69265;43.614;13.518;2023-04-15T14:55:30;4.88;;;1.20;;
79785;SDS011;69265;43.614;13.518;2023-04-15T14:57:55;3.00;;;1.42;;
79785;SDS011;69265;43.614;13.518;2023-04-15T15:00:21;2.25;;;1.10;;